sensor_id;sensor_type;location;lat;lon;timestamp;pressure;altitude;pressure_sealevel;temperature;humidity
22930;BME280;11630;42.660;23.292;2023-02-02T00:01:32;68142.05;;;5.50;68.77
22930;BME280;11630;42.660;23.292;2023-02-02T00:04:03;68148.84;;;5.57;68.51
22930;BME280;11630;42.660;23.292;2023-02-02T00:06:34;68144.21;;;5.49;68.53
22930;BME280;11630;42.660;23.292;2023-02-02T00:09:05;68141.80;;;5.51;68.89
22930;BME280;11630;42.660;23.292;2023-02-02T00:11:36;68137.46;;;5.44;69.40
22930;BME280;11630;42.660;23.292;2023-02-02T00:14:07;68138.55;;;5.48;69.11
22930;BME280;11630;42.660;23.292;2023-02-02T00:16:46;68136.92;;;5.46;69.42
22930;BME280;11630;42.660;23.292;2023-02-02T00:19:20;68128.55;;;5.40;68.77
22930;BME280;11630;42.660;23.292;2023-02-02T00:21:52;68138.55;;;5.45;68.88
22930;BME280;11630;42.660;23.292;2023-02-02T00:24:22;68128.00;;;5.39;70.00
22930;BME280;11630;42.660;23.292;2023-02-02T00:26:55;68126.90;;;5.36;69.86
22930;BME280;11630;42.660;23.292;2023-02-02T00:29:32;68127.72;;;5.38;69.63
22930;BME280;11630;42.660;23.292;2023-02-02T00:32:04;68125.81;;;5.35;69.96
22930;BME280;11630;42.660;23.292;2023-02-02T00:34:35;68122.84;;;5.31;70.72
22930;BME280;11630;42.660;23.292;2023-02-02T00:37:05;68122.02;;;5.31;71.59
22930;BME280;11630;42.660;23.292;2023-02-02T00:39:36;68113.91;;;5.24;71.81
22930;BME280;11630;42.660;23.292;2023-02-02T00:42:09;68111.21;;;5.22;72.71
22930;BME280;11630;42.660;23.292;2023-02-02T00:44:41;68116.88;;;5.26;73.01
22930;BME280;11630;42.660;23.292;2023-02-02T00:47:27;68116.34;;;5.25;73.96
22930;BME280;11630;42.660;23.292;2023-02-02T00:49:58;68121.73;;;5.28;74.75
22930;BME280;11630;42.660;23.292;2023-02-02T00:52:29;68121.77;;;5.32;74.32
22930;BME280;11630;42.660;23.292;2023-02-02T00:54:59;68116.34;;;5.25;74.46
22930;BME280;11630;42.660;23.292;2023-02-02T00:57:30;68103.34;;;5.13;76.92
22930;BME280;11630;42.660;23.292;2023-02-02T01:00:00;68100.12;;;5.13;78.84
22930;BME280;11630;42.660;23.292;2023-02-02T01:02:32;68099.84;;;5.09;79.23
22930;BME280;11630;42.660;23.292;2023-02-02T01:05:02;68101.20;;;5.14;79.65
22930;BME280;11630;42.660;23.292;2023-02-02T01:07:33;68115.78;;;5.22;79.50
22930;BME280;11630;42.660;23.292;2023-02-02T01:10:05;68115.00;;;5.25;79.62
22930;BME280;11630;42.660;23.292;2023-02-02T01:12:35;68110.14;;;5.23;79.15
22930;BME280;11630;42.660;23.292;2023-02-02T01:15:06;68106.88;;;5.20;78.86
22930;BME280;11630;42.660;23.292;2023-02-02T01:17:36;68100.93;;;5.12;78.86
22930;BME280;11630;42.660;23.292;2023-02-02T01:20:09;68094.72;;;5.08;78.44
22930;BME280;11630;42.660;23.292;2023-02-02T01:22:39;68091.19;;;5.03;78.41
22930;BME280;11630;42.660;23.292;2023-02-02T01:25:10;68103.08;;;5.14;78.08
22930;BME280;11630;42.660;23.292;2023-02-02T01:27:42;68092.83;;;5.10;77.93
22930;BME280;11630;42.660;23.292;2023-02-02T01:30:15;68097.41;;;5.08;78.04
22930;BME280;11630;42.660;23.292;2023-02-02T01:32:45;68091.99;;;5.05;78.05
22930;BME280;11630;42.660;23.292;2023-02-02T01:35:16;68093.08;;;5.06;78.43
22930;BME280;11630;42.660;23.292;2023-02-02T01:37:47;68080.92;;;4.96;79.19
22930;BME280;11630;42.660;23.292;2023-02-02T01:40:17;68087.41;;;5.02;78.97
22930;BME280;11630;42.660;23.292;2023-02-02T01:42:48;68087.67;;;5.01;79.38
22930;BME280;11630;42.660;23.292;2023-02-02T01:45:23;68081.44;;;4.94;79.62
22930;BME280;11630;42.660;23.292;2023-02-02T01:47:58;68087.93;;;5.00;79.69
22930;BME280;11630;42.660;23.292;2023-02-02T01:50:30;68082.02;;;5.00;79.64
22930;BME280;11630;42.660;23.292;2023-02-02T01:52:57;68082.53;;;4.95;80.15
22930;BME280;11630;42.660;23.292;2023-02-02T01:55:29;68072.27;;;4.88;80.37
22930;BME280;11630;42.660;23.292;2023-02-02T01:58:18;68078.73;;;4.89;79.57
22930;BME280;11630;42.660;23.292;2023-02-02T02:00:48;68084.14;;;4.97;79.34
22930;BME280;11630;42.660;23.292;2023-02-02T02:03:20;68085.22;;;4.95;80.74
22930;BME280;11630;42.660;23.292;2023-02-02T02:05:53;68078.73;;;4.89;79.07
22930;BME280;11630;42.660;23.292;2023-02-02T02:08:30;68085.22;;;4.95;78.89
22930;BME280;11630;42.660;23.292;2023-02-02T02:10:55;68087.64;;;4.96;79.14
22930;BME280;11630;42.660;23.292;2023-02-02T02:13:28;68082.48;;;4.90;79.07
22930;BME280;11630;42.660;23.292;2023-02-02T02:16:34;68080.36;;;4.93;79.65
22930;BME280;11630;42.660;23.292;2023-02-02T02:22:12;68061.70;;;4.77;79.98
22930;BME280;11630;42.660;23.292;2023-02-02T02:25:25;68071.44;;;4.86;80.90
22930;BME280;11630;42.660;23.292;2023-02-02T02:39:31;68064.09;;;4.73;81.93
22930;BME280;11630;42.660;23.292;2023-02-02T02:42:03;68055.20;;;4.71;81.17
22930;BME280;11630;42.660;23.292;2023-02-02T02:44:33;68048.45;;;4.66;82.00
22930;BME280;11630;42.660;23.292;2023-02-02T02:47:04;68044.66;;;4.60;82.79
22930;BME280;11630;42.660;23.292;2023-02-02T02:49:42;68043.28;;;4.58;83.16
22930;BME280;11630;42.660;23.292;2023-02-02T02:52:12;68041.09;;;4.53;83.78
22930;BME280;11630;42.660;23.292;2023-02-02T02:54:52;68037.05;;;4.51;81.96
22930;BME280;11630;42.660;23.292;2023-02-02T03:00:11;68046.80;;;4.60;81.51
22930;BME280;11630;42.660;23.292;2023-02-02T03:10:56;68036.55;;;4.55;80.93
22930;BME280;11630;42.660;23.292;2023-02-02T03:13:29;68031.41;;;4.50;81.25
22930;BME280;11630;42.660;23.292;2023-02-02T03:16:01;68038.69;;;4.53;81.21
22930;BME280;11630;42.660;23.292;2023-02-02T03:18:32;68045.72;;;4.61;80.97
22930;BME280;11630;42.660;23.292;2023-02-02T03:21:03;68041.15;;;4.58;80.64
22930;BME280;11630;42.660;23.292;2023-02-02T03:23:33;68052.23;;;4.67;80.12
22930;BME280;11630;42.660;23.292;2023-02-02T03:26:05;68060.34;;;4.75;80.36
22930;BME280;11630;42.660;23.292;2023-02-02T03:28:36;68050.06;;;4.65;79.42
22930;BME280;11630;42.660;23.292;2023-02-02T03:31:07;68056.81;;;4.70;78.48
22930;BME280;11630;42.660;23.292;2023-02-02T03:33:37;68072.77;;;4.84;79.36
22930;BME280;11630;42.660;23.292;2023-02-02T03:36:07;68052.20;;;4.65;79.59
22930;BME280;11630;42.660;23.292;2023-02-02T03:38:38;68057.63;;;4.72;76.02
22930;BME280;11630;42.660;23.292;2023-02-02T03:41:08;68069.81;;;4.82;75.11
22930;BME280;11630;42.660;23.292;2023-02-02T03:43:39;68073.30;;;4.84;75.13
22930;BME280;11630;42.660;23.292;2023-02-02T03:46:11;68070.61;;;4.84;76.85
22930;BME280;11630;42.660;23.292;2023-02-02T03:48:41;68054.67;;;4.71;77.43
22930;BME280;11630;42.660;23.292;2023-02-02T03:51:12;68068.19;;;4.83;76.29
22930;BME280;11630;42.660;23.292;2023-02-02T03:53:44;68063.30;;;4.76;78.01
22930;BME280;11630;42.660;23.292;2023-02-02T03:56:16;68052.49;;;4.66;75.51
22930;BME280;11630;42.660;23.292;2023-02-02T03:58:46;68061.15;;;4.74;75.54
22930;BME280;11630;42.660;23.292;2023-02-02T04:01:24;68061.42;;;4.76;74.87
22930;BME280;11630;42.660;23.292;2023-02-02T04:03:50;68064.13;;;4.78;75.66
22930;BME280;11630;42.660;23.292;2023-02-02T04:06:20;68070.61;;;4.84;75.23
22930;BME280;11630;42.660;23.292;2023-02-02T04:08:50;68087.94;;;5.03;74.74
22930;BME280;11630;42.660;23.292;2023-02-02T04:11:21;68069.01;;;4.85;70.96
22930;BME280;11630;42.660;23.292;2023-02-02T04:13:51;68086.83;;;4.97;69.83
22930;BME280;11630;42.660;23.292;2023-02-02T04:16:22;68080.61;;;4.92;72.27
22930;BME280;11630;42.660;23.292;2023-02-02T04:18:53;68085.48;;;4.97;73.99
22930;BME280;11630;42.660;23.292;2023-02-02T04:21:25;68073.59;;;4.86;74.49
22930;BME280;11630;42.660;23.292;2023-02-02T04:23:55;68074.95;;;4.88;74.65
22930;BME280;11630;42.660;23.292;2023-02-02T04:26:26;68069.27;;;4.84;74.14
22930;BME280;11630;42.660;23.292;2023-02-02T04:28:59;68068.47;;;4.82;74.75
22930;BME280;11630;42.660;23.292;2023-02-02T04:31:33;68069.53;;;4.83;74.30
22930;BME280;11630;42.660;23.292;2023-02-02T04:34:04;68064.67;;;4.79;76.06
22930;BME280;11630;42.660;23.292;2023-02-02T04:36:36;68064.92;;;4.75;77.21
22930;BME280;11630;42.660;23.292;2023-02-02T04:39:11;68060.84;;;4.70;77.75
22930;BME280;11630;42.660;23.292;2023-02-02T04:41:42;68040.84;;;4.54;78.71
22930;BME280;11630;42.660;23.292;2023-02-02T04:44:14;68035.70;;;4.51;77.64
22930;BME280;11630;42.660;23.292;2023-02-02T04:46:45;68046.00;;;4.60;76.10
22930;BME280;11630;42.660;23.292;2023-02-02T04:49:17;68046.81;;;4.62;75.94
22930;BME280;11630;42.660;23.292;2023-02-02T04:51:47;68043.84;;;4.61;76.37
22930;BME280;11630;42.660;23.292;2023-02-02T04:54:18;68043.01;;;4.56;76.95
22930;BME280;11630;42.660;23.292;2023-02-02T04:56:49;68038.69;;;4.53;76.70
22930;BME280;11630;42.660;23.292;2023-02-02T04:59:19;68038.41;;;4.53;75.58
22930;BME280;11630;42.660;23.292;2023-02-02T05:01:50;68032.77;;;4.52;74.98
22930;BME280;11630;42.660;23.292;2023-02-02T05:04:21;68041.66;;;4.56;75.07
22930;BME280;11630;42.660;23.292;2023-02-02T05:06:52;68038.45;;;4.56;75.44
22930;BME280;11630;42.660;23.292;2023-02-02T05:09:21;68047.34;;;4.60;76.14
22930;BME280;11630;42.660;23.292;2023-02-02T05:11:52;68046.56;;;4.66;77.42
22930;BME280;11630;42.660;23.292;2023-02-02T05:14:22;68023.84;;;4.43;78.27
22930;BME280;11630;42.660;23.292;2023-02-02T05:16:53;68034.35;;;4.49;76.79
22930;BME280;11630;42.660;23.292;2023-02-02T05:19:24;68033.03;;;4.53;77.29
22930;BME280;11630;42.660;23.292;2023-02-02T05:21:55;68019.21;;;4.35;76.88
22930;BME280;11630;42.660;23.292;2023-02-02T05:24:26;68021.66;;;4.41;76.60
22930;BME280;11630;42.660;23.292;2023-02-02T05:26:56;68017.87;;;4.35;75.32
22930;BME280;11630;42.660;23.292;2023-02-02T05:29:28;68039.75;;;4.53;72.47
22930;BME280;11630;42.660;23.292;2023-02-02T05:31:59;68031.14;;;4.51;72.93
22930;BME280;11630;42.660;23.292;2023-02-02T05:34:30;68042.75;;;4.57;71.20
22930;BME280;11630;42.660;23.292;2023-02-02T05:37:02;68063.84;;;4.74;67.09
22930;BME280;11630;42.660;23.292;2023-02-02T05:39:32;68070.36;;;4.88;66.76
22930;BME280;11630;42.660;23.292;2023-02-02T05:42:03;68080.61;;;4.92;67.95
22930;BME280;11630;42.660;23.292;2023-02-02T05:44:33;68077.91;;;4.87;69.60
22930;BME280;11630;42.660;23.292;2023-02-02T05:47:03;68071.15;;;4.82;70.90
22930;BME280;11630;42.660;23.292;2023-02-02T05:49:33;68060.91;;;4.78;70.73
22930;BME280;11630;42.660;23.292;2023-02-02T05:52:04;68059.55;;;4.75;71.73
22930;BME280;11630;42.660;23.292;2023-02-02T05:54:35;68065.98;;;4.76;72.28
22930;BME280;11630;42.660;23.292;2023-02-02T05:57:06;68057.38;;;4.73;70.23
22930;BME280;11630;42.660;23.292;2023-02-02T05:59:37;68070.33;;;4.80;70.16
22930;BME280;11630;42.660;23.292;2023-02-02T06:02:08;68087.09;;;4.96;67.89
22930;BME280;11630;42.660;23.292;2023-02-02T06:04:39;68099.80;;;5.06;67.60
22930;BME280;11630;42.660;23.292;2023-02-02T06:07:10;68113.06;;;5.17;67.02
22930;BME280;11630;42.660;23.292;2023-02-02T06:09:40;68132.29;;;5.38;62.97
22930;BME280;11630;42.660;23.292;2023-02-02T06:12:11;68136.92;;;5.46;61.68
22930;BME280;11630;42.660;23.292;2023-02-02T06:14:42;68139.61;;;5.46;62.34
22930;BME280;11630;42.660;23.292;2023-02-02T06:17:13;68122.58;;;5.32;64.25
22930;BME280;11630;42.660;23.292;2023-02-02T06:19:44;68131.50;;;5.39;65.14
22930;BME280;11630;42.660;23.292;2023-02-02T06:22:14;68120.16;;;5.33;65.02
22930;BME280;11630;42.660;23.292;2023-02-02T06:24:45;68124.47;;;5.35;66.17
22930;BME280;11630;42.660;23.292;2023-02-02T06:27:16;68135.02;;;5.41;66.49
22930;BME280;11630;42.660;23.292;2023-02-02T06:29:50;68133.39;;;5.42;66.70
22930;BME280;11630;42.660;23.292;2023-02-02T06:32:22;68143.39;;;5.47;66.26
22930;BME280;11630;42.660;23.292;2023-02-02T06:34:53;68133.67;;;5.41;67.37
22930;BME280;11630;42.660;23.292;2023-02-02T06:37:23;68142.04;;;5.47;67.99
22930;BME280;11630;42.660;23.292;2023-02-02T06:39:54;68136.08;;;5.42;66.18
22930;BME280;11630;42.660;23.292;2023-02-02T06:42:25;68148.32;;;5.59;66.24
22930;BME280;11630;42.660;23.292;2023-02-02T06:45:00;68134.21;;;5.44;66.10
22930;BME280;11630;42.660;23.292;2023-02-02T06:47:32;68139.36;;;5.50;65.75
22930;BME280;11630;42.660;23.292;2023-02-02T06:50:04;68146.68;;;5.58;65.38
22930;BME280;11630;42.660;23.292;2023-02-02T06:52:35;68155.32;;;5.61;65.80
22930;BME280;11630;42.660;23.292;2023-02-02T06:55:05;68148.00;;;5.53;66.58
22930;BME280;11630;42.660;23.292;2023-02-02T06:57:36;68155.31;;;5.58;66.15
22930;BME280;11630;42.660;23.292;2023-02-02T07:00:10;68153.16;;;5.61;65.79
22930;BME280;11630;42.660;23.292;2023-02-02T07:02:39;68159.63;;;5.62;66.51
22930;BME280;11630;42.660;23.292;2023-02-02T07:05:10;68154.23;;;5.60;65.96
22930;BME280;11630;42.660;23.292;2023-02-02T07:07:41;68154.75;;;5.58;66.97
22930;BME280;11630;42.660;23.292;2023-02-02T07:10:12;68153.15;;;5.59;67.25
22930;BME280;11630;42.660;23.292;2023-02-02T07:12:43;68152.36;;;5.59;67.33
22930;BME280;11630;42.660;23.292;2023-02-02T07:15:13;68158.30;;;5.65;67.61
22930;BME280;11630;42.660;23.292;2023-02-02T07:17:44;68158.30;;;5.65;67.43
22930;BME280;11630;42.660;23.292;2023-02-02T07:20:15;68174.83;;;5.79;66.42
22930;BME280;11630;42.660;23.292;2023-02-02T07:22:46;68173.22;;;5.80;66.22
22930;BME280;11630;42.660;23.292;2023-02-02T07:25:17;68176.21;;;5.84;66.26
22930;BME280;11630;42.660;23.292;2023-02-02T07:27:51;68165.09;;;5.75;66.50
22930;BME280;11630;42.660;23.292;2023-02-02T07:30:18;68176.45;;;5.78;66.51
22930;BME280;11630;42.660;23.292;2023-02-02T07:32:52;68173.78;;;5.83;66.65
22930;BME280;11630;42.660;23.292;2023-02-02T07:35:23;68175.65;;;5.81;67.08
22930;BME280;11630;42.660;23.292;2023-02-02T07:37:55;68183.23;;;5.88;66.60
22930;BME280;11630;42.660;23.292;2023-02-02T07:40:26;68213.02;;;6.12;66.32
22930;BME280;11630;42.660;23.292;2023-02-02T07:42:57;68222.22;;;6.21;65.62
22930;BME280;11630;42.660;23.292;2023-02-02T07:45:27;68229.80;;;6.28;65.08
22930;BME280;11630;42.660;23.292;2023-02-02T07:47:58;68222.27;;;6.26;65.15
22930;BME280;11630;42.660;23.292;2023-02-02T07:50:32;68227.40;;;6.29;64.92
22930;BME280;11630;42.660;23.292;2023-02-02T07:53:03;68241.18;;;6.38;64.74
22930;BME280;11630;42.660;23.292;2023-02-02T07:55:34;68229.81;;;6.30;64.61
22930;BME280;11630;42.660;23.292;2023-02-02T07:58:04;68230.64;;;6.32;64.38
22930;BME280;11630;42.660;23.292;2023-02-02T08:00:35;68237.13;;;6.38;64.39
22930;BME280;11630;42.660;23.292;2023-02-02T08:03:05;68230.36;;;6.28;64.56
22930;BME280;11630;42.660;23.292;2023-02-02T08:05:36;68228.19;;;6.26;64.92
22930;BME280;11630;42.660;23.292;2023-02-02T08:08:07;68242.83;;;6.42;64.74
22930;BME280;11630;42.660;23.292;2023-02-02T08:10:38;68314.64;;;7.07;63.07
22930;BME280;11630;42.660;23.292;2023-02-02T08:13:09;68397.66;;;7.88;61.08
22930;BME280;11630;42.660;23.292;2023-02-02T08:15:40;68491.01;;;8.66;58.60
22930;BME280;11630;42.660;23.292;2023-02-02T08:18:11;68508.66;;;8.83;57.14
22930;BME280;11630;42.660;23.292;2023-02-02T08:20:42;68567.87;;;9.37;56.17
22930;BME280;11630;42.660;23.292;2023-02-02T08:23:13;68563.80;;;9.37;55.87
22930;BME280;11630;42.660;23.292;2023-02-02T08:25:43;68501.03;;;8.74;56.75
22930;BME280;11630;42.660;23.292;2023-02-02T08:28:15;68415.55;;;7.99;58.90
22930;BME280;11630;42.660;23.292;2023-02-02T08:30:46;68407.96;;;7.97;60.21
22930;BME280;11630;42.660;23.292;2023-02-02T08:33:17;68378.64;;;7.65;61.43
22930;BME280;11630;42.660;23.292;2023-02-02T08:35:48;68393.29;;;7.79;60.51
22930;BME280;11630;42.660;23.292;2023-02-02T08:38:18;68399.53;;;7.86;61.29
22930;BME280;11630;42.660;23.292;2023-02-02T08:40:49;68390.33;;;7.80;63.02
22930;BME280;11630;42.660;23.292;2023-02-02T08:43:19;68355.03;;;7.43;63.60
22930;BME280;11630;42.660;23.292;2023-02-02T08:45:51;68341.24;;;7.36;64.75
22930;BME280;11630;42.660;23.292;2023-02-02T08:48:22;68376.23;;;7.69;64.26
22930;BME280;11630;42.660;23.292;2023-02-02T08:50:56;68377.81;;;7.63;64.85
22930;BME280;11630;42.660;23.292;2023-02-02T08:53:28;68336.87;;;7.25;65.87
22930;BME280;11630;42.660;23.292;2023-02-02T08:56:03;68318.98;;;7.11;66.38
22930;BME280;11630;42.660;23.292;2023-02-02T08:58:34;68319.52;;;7.09;65.91
22930;BME280;11630;42.660;23.292;2023-02-02T09:01:14;68333.08;;;7.24;64.60
22930;BME280;11630;42.660;23.292;2023-02-02T09:03:43;68346.91;;;7.38;63.76
22930;BME280;11630;42.660;23.292;2023-02-02T09:06:16;68369.41;;;7.55;62.61
22930;BME280;11630;42.660;23.292;2023-02-02T09:08:46;68423.67;;;8.07;61.18
22930;BME280;11630;42.660;23.292;2023-02-02T09:11:19;68481.77;;;8.60;62.02
22930;BME280;11630;42.660;23.292;2023-02-02T09:13:53;68553.76;;;9.29;56.83
22930;BME280;11630;42.660;23.292;2023-02-02T09:16:23;68570.31;;;9.38;55.89
22930;BME280;11630;42.660;23.292;2023-02-02T09:18:55;68641.27;;;10.07;51.44
22930;BME280;11630;42.660;23.292;2023-02-02T09:21:26;68581.99;;;9.50;56.63
22930;BME280;11630;42.660;23.292;2023-02-02T09:23:56;68627.11;;;9.94;56.41
22930;BME280;11630;42.660;23.292;2023-02-02T09:26:29;68646.71;;;10.12;51.57
22930;BME280;11630;42.660;23.292;2023-02-02T09:29:02;68648.34;;;10.11;51.82
22930;BME280;11630;42.660;23.292;2023-02-02T09:31:35;68706.52;;;10.64;52.53
22930;BME280;11630;42.660;23.292;2023-02-02T09:34:12;68732.38;;;10.86;51.80
22930;BME280;11630;42.660;23.292;2023-02-02T09:36:42;68657.59;;;10.24;56.29
22930;BME280;11630;42.660;23.292;2023-02-02T09:39:13;68683.68;;;10.46;53.72
22930;BME280;11630;42.660;23.292;2023-02-02T09:42:06;68738.89;;;10.92;53.09
22930;BME280;11630;42.660;23.292;2023-02-02T09:44:58;68839.89;;;11.86;51.64
22930;BME280;11630;42.660;23.292;2023-02-02T09:50:48;68786.78;;;11.36;52.49
22930;BME280;11630;42.660;23.292;2023-02-02T09:56:12;68825.20;;;11.75;53.40
22930;BME280;11630;42.660;23.292;2023-02-02T09:58:47;68842.34;;;11.82;54.31
22930;BME280;11630;42.660;23.292;2023-02-02T10:01:29;68890.83;;;12.33;50.48
22930;BME280;11630;42.660;23.292;2023-02-02T10:03:59;68903.89;;;12.45;50.16
22930;BME280;11630;42.660;23.292;2023-02-02T10:06:37;68882.38;;;12.25;52.08
22930;BME280;11630;42.660;23.292;2023-02-02T10:12:27;68811.58;;;11.60;50.06
22930;BME280;11630;42.660;23.292;2023-02-02T10:18:01;68839.61;;;11.92;49.77
22930;BME280;11630;42.660;23.292;2023-02-02T10:20:41;68756.84;;;11.09;48.63
22930;BME280;11630;42.660;23.292;2023-02-02T10:23:26;68763.11;;;11.18;47.51
22930;BME280;11630;42.660;23.292;2023-02-02T10:29:07;68800.40;;;11.51;46.38
22930;BME280;11630;42.660;23.292;2023-02-02T10:34:21;68832.27;;;11.79;46.30
22930;BME280;11630;42.660;23.292;2023-02-02T10:42:18;68828.73;;;11.82;45.67
22930;BME280;11630;42.660;23.292;2023-02-02T10:44:55;68741.08;;;10.99;46.87
22930;BME280;11630;42.660;23.292;2023-02-02T10:47:26;68709.23;;;10.64;47.71
22930;BME280;11630;42.660;23.292;2023-02-02T10:52:59;68560.00;;;9.31;51.39
22930;BME280;11630;42.660;23.292;2023-02-02T10:55:36;68609.18;;;9.80;50.70
22930;BME280;11630;42.660;23.292;2023-02-02T11:00:56;68699.46;;;10.58;48.63
22930;BME280;11630;42.660;23.292;2023-02-02T11:03:36;68713.86;;;10.70;48.09
22930;BME280;11630;42.660;23.292;2023-02-02T11:06:02;68732.64;;;10.90;46.88
22930;BME280;11630;42.660;23.292;2023-02-02T11:08:51;68733.17;;;10.88;46.90
22930;BME280;11630;42.660;23.292;2023-02-02T11:11:42;68725.82;;;10.80;46.68
22930;BME280;11630;42.660;23.292;2023-02-02T11:14:17;68749.50;;;11.03;46.78
22930;BME280;11630;42.660;23.292;2023-02-02T11:16:58;68782.69;;;11.26;45.31
22930;BME280;11630;42.660;23.292;2023-02-02T11:19:23;68784.89;;;11.38;45.48
22930;BME280;11630;42.660;23.292;2023-02-02T11:21:55;68756.87;;;11.19;45.10
22930;BME280;11630;42.660;23.292;2023-02-02T11:24:32;68785.70;;;11.40;44.72
22930;BME280;11630;42.660;23.292;2023-02-02T11:27:23;68746.25;;;11.08;44.88
22930;BME280;11630;42.660;23.292;2023-02-02T11:29:55;68737.53;;;10.95;45.30
22930;BME280;11630;42.660;23.292;2023-02-02T11:32:32;68734.27;;;10.89;45.60
22930;BME280;11630;42.660;23.292;2023-02-02T11:35:16;68772.91;;;11.32;44.80
22930;BME280;11630;42.660;23.292;2023-02-02T11:40:39;68762.30;;;11.16;44.39
22930;BME280;11630;42.660;23.292;2023-02-02T11:43:24;68742.97;;;11.00;45.14
22930;BME280;11630;42.660;23.292;2023-02-02T11:45:55;68731.55;;;10.84;45.54
22930;BME280;11630;42.660;23.292;2023-02-02T11:48:33;68816.22;;;11.70;44.58
22930;BME280;11630;42.660;23.292;2023-02-02T11:51:05;68812.67;;;11.63;44.34
22930;BME280;11630;42.660;23.292;2023-02-02T11:53:45;68817.29;;;11.66;44.49
22930;BME280;11630;42.660;23.292;2023-02-02T11:56:21;68765.02;;;11.16;45.43
22930;BME280;11630;42.660;23.292;2023-02-02T11:58:54;68797.13;;;11.48;45.07
22930;BME280;11630;42.660;23.292;2023-02-02T12:01:32;68746.52;;;10.99;46.10
22930;BME280;11630;42.660;23.292;2023-02-02T12:06:48;68739.43;;;10.95;45.46
22930;BME280;11630;42.660;23.292;2023-02-02T12:09:23;68777.54;;;11.30;45.10
22930;BME280;11630;42.660;23.292;2023-02-02T12:12:17;68759.30;;;11.15;45.64
22930;BME280;11630;42.660;23.292;2023-02-02T12:17:43;68751.95;;;11.07;46.33
22930;BME280;11630;42.660;23.292;2023-02-02T12:23:33;68676.34;;;10.40;48.17
22930;BME280;11630;42.660;23.292;2023-02-02T12:26:10;68617.05;;;9.84;50.34
22930;BME280;11630;42.660;23.292;2023-02-02T12:28:53;68627.64;;;9.92;51.17
22930;BME280;11630;42.660;23.292;2023-02-02T12:34:40;68618.41;;;9.86;49.96
22930;BME280;11630;42.660;23.292;2023-02-02T12:37:13;68582.55;;;9.51;47.53
22930;BME280;11630;42.660;23.292;2023-02-02T12:39:53;68596.67;;;9.61;47.57
22930;BME280;11630;42.660;23.292;2023-02-02T12:53:50;68537.98;;;9.13;47.96
22930;BME280;11630;42.660;23.292;2023-02-02T12:59:22;68538.25;;;9.12;48.64
22930;BME280;11630;42.660;23.292;2023-02-02T13:01:55;68542.62;;;9.20;49.65
22930;BME280;11630;42.660;23.292;2023-02-02T13:04:57;68530.38;;;9.06;50.53
22930;BME280;11630;42.660;23.292;2023-02-02T13:10:10;68525.78;;;9.03;51.32
22930;BME280;11630;42.660;23.292;2023-02-02T13:12:46;68520.07;;;8.96;50.92
22930;BME280;11630;42.660;23.292;2023-02-02T13:15:19;68517.89;;;8.92;51.02
22930;BME280;11630;42.660;23.292;2023-02-02T13:17:53;68512.20;;;8.88;51.39
22930;BME280;11630;42.660;23.292;2023-02-02T13:20:42;68520.33;;;8.93;51.69
22930;BME280;11630;42.660;23.292;2023-02-02T13:26:11;68525.22;;;9.00;50.26
22930;BME280;11630;42.660;23.292;2023-02-02T13:28:46;68521.42;;;8.96;48.93
22930;BME280;11630;42.660;23.292;2023-02-02T13:37:19;68512.73;;;8.91;48.90
22930;BME280;11630;42.660;23.292;2023-02-02T13:39:54;68487.23;;;8.70;48.99
22930;BME280;11630;42.660;23.292;2023-02-02T13:42:38;68485.31;;;8.64;49.33
22930;BME280;11630;42.660;23.292;2023-02-02T13:45:21;68471.73;;;8.52;49.81
22930;BME280;11630;42.660;23.292;2023-02-02T13:47:48;68453.81;;;8.33;50.07
22930;BME280;11630;42.660;23.292;2023-02-02T13:50:19;68435.35;;;8.16;50.41
22930;BME280;11630;42.660;23.292;2023-02-02T13:53:22;68438.09;;;8.21;51.07
22930;BME280;11630;42.660;23.292;2023-02-02T13:56:04;68447.05;;;8.33;51.48
22930;BME280;11630;42.660;23.292;2023-02-02T13:58:51;68470.66;;;8.51;51.81
22930;BME280;11630;42.660;23.292;2023-02-02T14:01:20;68495.08;;;8.71;53.02
22930;BME280;11630;42.660;23.292;2023-02-02T14:03:56;68504.59;;;8.81;53.71
22930;BME280;11630;42.660;23.292;2023-02-02T14:06:27;68511.38;;;8.91;57.23
22930;BME280;11630;42.660;23.292;2023-02-02T14:09:02;68496.44;;;8.71;62.53
22930;BME280;11630;42.660;23.292;2023-02-02T14:11:34;68414.46;;;8.01;69.38
22930;BME280;11630;42.660;23.292;2023-02-02T14:14:22;68386.23;;;7.75;72.91
22930;BME280;11630;42.660;23.292;2023-02-02T14:17:03;68359.39;;;7.49;74.83
22930;BME280;11630;42.660;23.292;2023-02-02T14:22:41;68341.76;;;7.32;75.05
22930;BME280;11630;42.660;23.292;2023-02-02T14:28:09;68334.17;;;7.25;75.32
22930;BME280;11630;42.660;23.292;2023-02-02T14:30:40;68338.24;;;7.32;75.54
22930;BME280;11630;42.660;23.292;2023-02-02T14:33:38;68326.30;;;7.19;77.01
22930;BME280;11630;42.660;23.292;2023-02-02T14:36:00;68304.88;;;7.00;78.91
22930;BME280;11630;42.660;23.292;2023-02-02T14:38:50;68309.75;;;7.02;79.37
22930;BME280;11630;42.660;23.292;2023-02-02T14:41:47;68321.97;;;7.15;80.12
22930;BME280;11630;42.660;23.292;2023-02-02T14:44:30;68311.93;;;7.04;80.87
22930;BME280;11630;42.660;23.292;2023-02-02T14:47:00;68280.23;;;6.77;85.08
22930;BME280;11630;42.660;23.292;2023-02-02T14:49:34;68232.51;;;6.30;95.05
22930;BME280;11630;42.660;23.292;2023-02-02T14:52:05;68206.26;;;6.08;100.00
22930;BME280;11630;42.660;23.292;2023-02-02T14:54:38;68122.31;;;5.33;100.00
22930;BME280;11630;42.660;23.292;2023-02-02T14:57:25;68109.31;;;5.21;100.00
22930;BME280;11630;42.660;23.292;2023-02-02T14:59:56;68093.08;;;5.06;100.00
22930;BME280;11630;42.660;23.292;2023-02-02T15:02:32;68090.64;;;5.05;100.00
22930;BME280;11630;42.660;23.292;2023-02-02T15:10:59;67966.52;;;3.90;100.00
22930;BME280;11630;42.660;23.292;2023-02-02T15:13:32;67951.64;;;3.75;100.00
22930;BME280;11630;42.660;23.292;2023-02-02T15:16:10;67952.47;;;3.77;100.00
22930;BME280;11630;42.660;23.292;2023-02-02T15:18:45;67935.17;;;3.61;100.00